»·PEaware :: N16RD KSAN-KPSP

N16RD :: KSAN-KPSP

FLIGHT INFORMATION

Flight Status: Arrived
Operator: Privately registered:
United States
More flights under this callsign
Pilot: Brett B. (12105)
Aircraft: CESSNA 182 SKYLANE
(C182)
More flights by this aircraft type
Origin: KSAN San Diego Intl-Lindbergh
United States
Destination: KPSP Palm Springs Intl
United States
More flights between these airports :: More routes between these airports
Route:
File this flight plan on PilotEdge
Remarks:
Altitude:
(Current/Filed)
7,500ft
Speed:
(Current/Filed)
0kts
Departed: 30-Dec-20 04:09 PM
Arrived: 30-Dec-20 05:09 PM
Distance/Time
Traveled:
6757nm/1:00
Distance/Time
To Go:
Arrived

Flight Plot

Page will automatically refresh every two minutes.


Map Options




Map Legend


Flown Route
Filed Route
Departure Airport
Arrival Airport
Navaid (VOR, NDB)
Fix

Horizontal Profiles

Position Reports

Time Latitude Longitude Heading Altitude Ground
Speed
30-Dec-20 15:51 32.733606 -117.178986 14 15ft 0kts
30-Dec-20 15:52 32.733606 -117.178986 14 15ft 0kts
30-Dec-20 15:53 32.733606 -117.178986 14 15ft 0kts
30-Dec-20 15:54 32.733606 -117.178986 14 15ft 0kts
30-Dec-20 15:55 32.733606 -117.178986 14 15ft 0kts
30-Dec-20 15:56 32.733606 -117.178986 14 15ft 0kts
30-Dec-20 15:57 32.733606 -117.178986 14 15ft 0kts
30-Dec-20 15:58 32.733606 -117.178986 14 15ft 0kts
30-Dec-20 15:59 32.732668 -117.177953 130 15ft 8kts
30-Dec-20 16:00 32.732120 -117.176715 151 15ft 7kts
30-Dec-20 16:01 32.730902 -117.175447 146 14ft 0kts
30-Dec-20 16:03 32.730902 -117.175447 146 14ft 0kts
30-Dec-20 16:04 32.730902 -117.175447 146 14ft 0kts
30-Dec-20 16:05 32.730902 -117.175447 146 14ft 0kts
30-Dec-20 16:06 32.730902 -117.175447 146 14ft 0kts
30-Dec-20 16:07 32.730902 -117.175447 146 14ft 0kts
30-Dec-20 16:08 32.730902 -117.175447 146 14ft 0kts
30-Dec-20 16:09 32.731458 -117.181164 284 35ft 66kts
30-Dec-20 16:10 32.737562 -117.200223 324 622ft 64kts
30-Dec-20 16:11 32.752975 -117.212562 326 1229ft 70kts
30-Dec-20 16:12 32.768757 -117.225679 326 1913ft 71kts
30-Dec-20 16:13 32.784119 -117.238640 326 2573ft 69kts
30-Dec-20 16:14 32.799307 -117.251670 326 3189ft 71kts
30-Dec-20 16:14 32.812852 -117.263399 327 3701ft 74kts
30-Dec-20 16:16 32.834498 -117.263305 29 4412ft 75kts
30-Dec-20 16:17 32.841465 -117.239255 67 5011ft 78kts
30-Dec-20 16:18 32.848202 -117.215163 67 5600ft 77kts
30-Dec-20 16:18 32.853679 -117.195580 67 6067ft 75kts
30-Dec-20 16:19 32.859941 -117.172494 66 6629ft 73kts
30-Dec-20 16:21 32.866679 -117.146243 66 7241ft 71kts
30-Dec-20 16:21 32.871127 -117.128059 66 7651ft 70kts
30-Dec-20 16:22 32.876024 -117.106582 66 8116ft 68kts
30-Dec-20 16:23 32.880508 -117.085205 66 8530ft 67kts
30-Dec-20 16:24 32.884898 -117.063949 59 8895ft 75kts
30-Dec-20 16:25 32.903628 -117.047139 23 8896ft 99kts
30-Dec-20 16:26 32.930278 -117.048580 0 8892ft 102kts
30-Dec-20 16:27 32.946738 -117.049722 1 8902ft 99kts
30-Dec-20 16:28 32.972542 -117.042472 24 8906ft 97kts
30-Dec-20 16:29 32.996105 -117.027677 26 8897ft 95kts
30-Dec-20 16:30 33.019618 -117.013187 27 8899ft 98kts
30-Dec-20 16:31 33.043142 -116.998662 27 8917ft 99kts
30-Dec-20 16:32 33.067004 -116.983816 27 8912ft 100kts
30-Dec-20 16:33 33.091965 -116.968348 28 8885ft 100kts
30-Dec-20 16:34 33.116113 -116.953379 27 8890ft 98kts
30-Dec-20 16:35 33.139086 -116.939078 27 8913ft 96kts
30-Dec-20 16:36 33.163074 -116.924174 27 8905ft 98kts
30-Dec-20 16:37 33.187253 -116.909137 27 8906ft 100kts
30-Dec-20 16:38 33.211145 -116.894331 27 8942ft 95kts
30-Dec-20 16:39 33.213303 -116.864437 97 8958ft 108kts
30-Dec-20 16:40 33.231078 -116.852069 0 8975ft 100kts
30-Dec-20 16:41 33.258809 -116.854148 0 9005ft 106kts
30-Dec-20 16:42 33.289099 -116.845847 24 8551ft 111kts
30-Dec-20 16:43 33.314191 -116.830015 26 8456ft 102kts
30-Dec-20 16:44 33.339472 -116.814268 27 8476ft 105kts
30-Dec-20 16:45 33.364569 -116.798640 26 8515ft 107kts
30-Dec-20 16:46 33.379268 -116.768593 66 8460ft 113kts
30-Dec-20 16:47 33.389432 -116.733715 66 8328ft 116kts
30-Dec-20 16:48 33.399955 -116.697680 66 8245ft 120kts
30-Dec-20 16:49 33.413400 -116.662514 43 7854ft 115kts
30-Dec-20 16:50 33.437046 -116.637954 36 7333ft 114kts
30-Dec-20 16:51 33.461243 -116.614077 36 6891ft 114kts
30-Dec-20 16:52 33.485369 -116.590166 36 6430ft 115kts
30-Dec-20 16:53 33.506633 -116.568632 36 6452ft 98kts
30-Dec-20 16:54 33.531286 -116.551083 18 6496ft 110kts
30-Dec-20 16:55 33.559367 -116.539436 16 6569ft 111kts
30-Dec-20 16:56 33.586405 -116.524806 34 6607ft 113kts
30-Dec-20 16:57 33.609956 -116.501167 36 6667ft 112kts
30-Dec-20 16:58 33.636320 -116.485574 23 6810ft 108kts
30-Dec-20 16:59 33.662764 -116.467071 30 6067ft 120kts
30-Dec-20 17:00 33.686566 -116.441190 42 4659ft 112kts
30-Dec-20 17:01 33.705504 -116.411051 55 3167ft 115kts
30-Dec-20 17:02 33.725826 -116.409913 314 2958ft 86kts
30-Dec-20 17:03 33.744007 -116.429984 316 3112ft 96kts
30-Dec-20 17:04 33.766570 -116.451008 318 2743ft 109kts
30-Dec-20 17:05 33.789893 -116.471842 318 1640ft 97kts
30-Dec-20 17:06 33.808345 -116.488483 319 679ft 71kts
30-Dec-20 17:07 33.823169 -116.501840 318 429ft 66kts
30-Dec-20 17:08 33.827942 -116.507208 174 434ft 0kts
30-Dec-20 17:09 33.826928 -116.507191 165 433ft 9kts
30-Dec-20 17:10 33.826216 -116.508545 31 434ft 0kts
30-Dec-20 17:11 33.826216 -116.508545 31 434ft 0kts
30-Dec-20 17:12 33.826216 -116.508545 31 434ft 0kts
30-Dec-20 17:13 33.826216 -116.508545 31 434ft 0kts
30-Dec-20 17:14 33.826216 -116.508545 31 434ft 0kts
30-Dec-20 17:15 0.000408 0.013975 0 3ft 0kts
30-Dec-20 17:16 0.000408 0.013975 0 3ft 0kts
30-Dec-20 17:17 0.000408 0.013975 0 3ft 0kts
30-Dec-20 17:18 0.000408 0.013975 0 3ft 0kts
30-Dec-20 17:19 0.000408 0.013975 0 3ft 0kts
30-Dec-20 17:20 0.000408 0.013975 0 3ft 0kts
30-Dec-20 17:21 0.000408 0.013975 0 3ft 0kts

Navigation Log

Ident Type
Flight plan parsing failed, navigation log unavailable